Time;durP1;ratioP1;P1;durP2;ratioP2;P2;SDS_P1;SDS_P2;PMS_P1;PMS_P2;Temp;Humidity;BMP_temperature;BMP_pressure;BME280_temperature;BME280_humidity;BME280_pressure;Samples;Min_cycle;Max_cycle;Signal;HPM_P1;HPM_P2
2024/02/28 00:01:03;;;;;;;165.20;55.90;;;0.00;99.90;;;;;;4977650;28;20494;-83
2024/02/28 00:03:31;;;;;;;166.27;55.22;;;0.10;99.90;;;;;;4974840;28;20046;-85
2024/02/28 00:05:58;;;;;;;275.55;67.82;;;0.10;99.90;;;;;;4963124;28;20086;-85
2024/02/28 00:08:25;;;;;;;265.63;67.70;;;0.00;99.90;;;;;;4967825;28;20562;-85
2024/02/28 00:10:53;;;;;;;224.77;62.80;;;0.20;99.90;;;;;;4962813;28;20074;-85
2024/02/28 00:13:22;;;;;;;422.38;80.88;;;0.20;99.90;;;;;;4989749;28;20049;-85
2024/02/28 00:15:49;;;;;;;528.13;85.20;;;0.30;99.90;;;;;;4963629;28;20057;-85
2024/02/28 00:18:16;;;;;;;511.30;84.18;;;0.30;99.90;;;;;;4982265;28;20054;-85
2024/02/28 00:20:46;;;;;;;539.80;84.55;;;0.40;99.90;;;;;;4985950;28;20154;-83
2024/02/28 00:23:13;;;;;;;616.10;95.18;;;0.30;99.90;;;;;;4966352;28;20261;-87
2024/02/28 00:25:40;;;;;;;615.25;91.50;;;0.30;99.90;;;;;;4972409;28;20050;-86
2024/02/28 00:28:08;;;;;;;588.30;85.45;;;0.40;99.90;;;;;;4963941;28;20763;-86
2024/02/28 00:30:35;;;;;;;693.53;96.57;;;0.40;99.90;;;;;;4944295;28;20391;-85
2024/02/28 00:33:02;;;;;;;741.13;105.78;;;0.40;99.90;;;;;;4966531;28;20073;-86
2024/02/28 00:35:35;;;;;;;661.83;96.95;;;0.30;99.90;;;;;;4982930;28;20054;-86
2024/02/28 00:38:05;;;;;;;587.85;84.47;;;0.20;99.90;;;;;;4974390;28;20054;-86
2024/02/28 00:40:32;;;;;;;767.13;100.75;;;0.10;99.90;;;;;;4996321;28;20081;-86
2024/02/28 00:42:58;;;;;;;935.72;119.88;;;0.20;99.90;;;;;;4973847;28;20050;-86
2024/02/28 00:45:26;;;;;;;611.70;88.85;;;0.30;99.90;;;;;;4983458;28;20043;-86
2024/02/28 00:47:55;;;;;;;765.10;103.18;;;0.30;99.90;;;;;;4996188;28;20049;-87
2024/02/28 00:50:22;;;;;;;597.45;89.75;;;0.30;99.90;;;;;;4986872;28;20050;-87
2024/02/28 00:52:49;;;;;;;738.67;101.18;;;0.50;99.90;;;;;;4962457;28;20052;-86
2024/02/28 00:55:15;;;;;;;641.95;96.60;;;0.40;99.90;;;;;;4983732;28;20073;-87
2024/02/28 00:57:42;;;;;;;523.38;82.97;;;0.40;99.90;;;;;;4966330;28;20046;-87
2024/02/28 01:00:10;;;;;;;497.70;76.80;;;0.40;99.90;;;;;;4983133;28;20046;-85
2024/02/28 01:02:37;;;;;;;578.83;83.95;;;0.30;99.90;;;;;;4991142;28;20152;-86
2024/02/28 01:05:04;;;;;;;499.98;76.18;;;0.20;99.90;;;;;;4978040;28;20046;-85
2024/02/28 01:07:31;;;;;;;439.40;74.68;;;0.20;99.90;;;;;;4976206;28;20116;-86
2024/02/28 01:09:58;;;;;;;463.65;74.05;;;0.20;99.90;;;;;;4980503;28;20088;-85
2024/02/28 01:12:25;;;;;;;610.38;87.90;;;0.30;99.90;;;;;;4978620;28;20058;-86
2024/02/28 01:14:52;;;;;;;398.02;72.03;;;0.30;99.90;;;;;;4971677;28;20074;-86
2024/02/28 01:17:19;;;;;;;471.77;78.03;;;0.40;99.90;;;;;;4993053;28;20050;-88
2024/02/28 01:19:46;;;;;;;528.00;80.00;;;0.40;99.90;;;;;;4965284;28;20046;-86
2024/02/28 01:22:13;;;;;;;483.83;79.00;;;0.50;99.90;;;;;;4976597;28;20114;-85
2024/02/28 01:24:39;;;;;;;509.80;77.72;;;0.30;99.90;;;;;;4991141;28;20066;-86
2024/02/28 01:27:06;;;;;;;453.77;75.05;;;0.30;99.90;;;;;;4964426;28;20050;-86
2024/02/28 01:29:33;;;;;;;713.90;100.82;;;0.30;99.90;;;;;;4959498;28;20082;-86
2024/02/28 01:32:01;;;;;;;390.55;70.30;;;0.30;99.90;;;;;;4971926;28;20125;-86
2024/02/28 01:34:27;;;;;;;389.15;67.80;;;0.10;99.90;;;;;;4957652;28;20042;-86
2024/02/28 01:36:54;;;;;;;578.25;82.10;;;0.10;99.90;;;;;;4974557;28;20061;-86
2024/02/28 01:39:21;;;;;;;667.67;98.72;;;0.10;99.90;;;;;;4978314;28;20053;-87
2024/02/28 01:41:54;;;;;;;666.45;93.60;;;0.10;99.90;;;;;;4970133;28;20050;-85
2024/02/28 01:44:21;;;;;;;649.97;90.35;;;0.10;99.90;;;;;;4966215;28;20239;-87
2024/02/28 01:46:49;;;;;;;584.83;85.35;;;0.10;99.90;;;;;;4977192;28;20066;-87
2024/02/28 01:49:17;;;;;;;487.15;78.30;;;0.10;99.90;;;;;;4965678;28;20125;-86
2024/02/28 01:51:46;;;;;;;642.03;86.07;;;0.10;99.90;;;;;;4977652;28;20109;-86
2024/02/28 01:54:14;;;;;;;613.30;88.15;;;-0.10;99.90;;;;;;4979119;28;20241;-85
2024/02/28 01:56:41;;;;;;;589.00;83.60;;;-0.30;99.90;;;;;;4972388;28;20057;-86
2024/02/28 01:59:10;;;;;;;403.40;60.95;;;-0.50;99.90;;;;;;4978453;28;21165;-85
2024/02/28 02:01:37;;;;;;;518.50;72.82;;;-0.50;99.90;;;;;;4992027;28;20164;-86
2024/02/28 02:04:05;;;;;;;504.95;71.40;;;-0.50;99.90;;;;;;4961640;28;20690;-87
2024/02/28 02:06:33;;;;;;;496.77;72.65;;;-0.60;99.90;;;;;;4991561;28;20065;-86
2024/02/28 02:09:01;;;;;;;595.03;79.38;;;-0.40;99.90;;;;;;4978349;28;20050;-86
2024/02/28 02:11:28;;;;;;;598.85;75.97;;;-0.30;99.90;;;;;;4973337;28;20038;-86
2024/02/28 02:13:55;;;;;;;555.72;79.00;;;-0.30;99.90;;;;;;4956777;28;20479;-86
2024/02/28 02:16:22;;;;;;;730.00;104.07;;;-0.40;99.90;;;;;;4963372;28;20068;-86
2024/02/28 02:18:49;;;;;;;686.38;85.93;;;-0.40;99.90;;;;;;4972427;28;20058;-86
2024/02/28 02:21:20;;;;;;;529.13;80.97;;;-0.60;99.90;;;;;;4980316;28;20039;-87
2024/02/28 02:23:46;;;;;;;495.45;72.13;;;-0.60;99.90;;;;;;4950416;28;20142;-85
2024/02/28 02:26:13;;;;;;;476.83;73.90;;;-0.60;99.90;;;;;;4982446;28;20421;-86
2024/02/28 02:28:40;;;;;;;509.42;75.00;;;-0.80;99.90;;;;;;4961075;28;20054;-88
2024/02/28 02:31:08;;;;;;;368.17;64.43;;;-0.70;99.90;;;;;;4980095;28;20054;-86
2024/02/28 02:33:35;;;;;;;391.42;70.88;;;-0.60;99.90;;;;;;4960114;28;20084;-86
2024/02/28 02:36:02;;;;;;;448.25;68.85;;;-0.60;99.90;;;;;;4978381;28;20047;-87
2024/02/28 02:38:29;;;;;;;521.72;71.82;;;-0.60;99.90;;;;;;4964227;28;20070;-85
2024/02/28 02:40:56;;;;;;;409.95;60.88;;;-0.70;99.90;;;;;;4974204;28;20042;-85
2024/02/28 02:43:23;;;;;;;478.80;70.38;;;-0.90;99.90;;;;;;4965891;28;20047;-87
2024/02/28 02:45:49;;;;;;;546.97;72.63;;;-0.80;99.90;;;;;;4965607;28;20074;-87
2024/02/28 02:48:17;;;;;;;695.15;89.32;;;-0.80;99.90;;;;;;4979738;28;20058;-87
2024/02/28 02:50:44;;;;;;;401.90;64.47;;;-0.80;99.90;;;;;;4979049;28;20112;-86
2024/02/28 02:53:11;;;;;;;342.70;63.10;;;-0.90;99.90;;;;;;4983217;28;20174;-85
2024/02/28 02:55:37;;;;;;;342.65;59.35;;;-0.70;99.90;;;;;;4980837;28;20622;-86
2024/02/28 02:58:04;;;;;;;332.65;64.03;;;-0.70;99.90;;;;;;4978119;28;20154;-85
2024/02/28 03:00:31;;;;;;;347.40;64.07;;;-0.80;99.90;;;;;;4978303;28;20085;-85
2024/02/28 03:02:58;;;;;;;343.63;63.47;;;-1.00;99.90;;;;;;4962323;28;20109;-86
2024/02/28 03:05:25;;;;;;;399.38;68.22;;;-1.00;99.90;;;;;;4980179;28;20046;-86
2024/02/28 03:07:52;;;;;;;371.38;67.35;;;-1.20;99.90;;;;;;4965297;28;20054;-87
2024/02/28 03:10:21;;;;;;;120.68;39.92;;;-1.30;99.90;;;;;;4962289;28;20057;-85
2024/02/28 03:12:48;;;;;;;112.75;36.97;;;-1.50;99.90;;;;;;4955753;28;20129;-85
2024/02/28 03:15:15;;;;;;;100.00;36.03;;;-1.60;99.90;;;;;;4946081;28;20137;-85
2024/02/28 03:17:43;;;;;;;104.68;36.17;;;-1.50;99.90;;;;;;4944571;28;20346;-86
2024/02/28 03:20:11;;;;;;;109.15;37.75;;;-1.40;99.90;;;;;;4961827;28;20054;-86
2024/02/28 03:22:38;;;;;;;117.47;39.20;;;-1.40;99.90;;;;;;4973061;28;20137;-86
2024/02/28 03:25:06;;;;;;;109.80;39.28;;;-1.20;99.90;;;;;;4946326;28;20134;-86
2024/02/28 03:27:33;;;;;;;109.15;39.47;;;-1.20;99.90;;;;;;4957269;28;20574;-87
2024/02/28 03:30:00;;;;;;;119.25;41.63;;;-1.10;99.90;;;;;;4955710;28;20054;-85
2024/02/28 03:32:28;;;;;;;128.18;42.78;;;-1.20;99.90;;;;;;4976715;28;20048;-85
2024/02/28 03:34:55;;;;;;;125.72;41.30;;;-1.20;99.90;;;;;;4960316;28;20438;-85
2024/02/28 03:37:22;;;;;;;214.00;49.95;;;-1.00;99.90;;;;;;4976837;28;20047;-85
2024/02/28 03:39:49;;;;;;;157.15;46.60;;;-0.90;99.90;;;;;;4974637;28;20058;-86
2024/02/28 03:42:16;;;;;;;169.25;48.03;;;-0.80;99.90;;;;;;4977563;28;20039;-86
2024/02/28 03:44:43;;;;;;;125.13;42.60;;;-0.80;99.90;;;;;;4980659;28;20113;-85
2024/02/28 03:47:10;;;;;;;127.65;44.17;;;-0.70;99.90;;;;;;4990787;28;20053;-85
2024/02/28 03:49:37;;;;;;;154.80;47.00;;;-0.70;99.90;;;;;;5001147;28;20053;-86
2024/02/28 03:52:06;;;;;;;151.75;46.97;;;-0.60;99.90;;;;;;5008431;28;21353;-86
2024/02/28 03:54:33;;;;;;;240.70;57.63;;;-0.50;99.90;;;;;;4989119;28;20058;-86
2024/02/28 03:57:00;;;;;;;247.85;55.42;;;-0.60;99.90;;;;;;4977965;28;20046;-85
2024/02/28 03:59:28;;;;;;;217.38;58.10;;;-0.50;99.90;;;;;;4987263;28;20039;-85
2024/02/28 04:01:54;;;;;;;187.45;51.60;;;-0.40;99.90;;;;;;4970849;28;20058;-85
2024/02/28 04:04:21;;;;;;;191.07;54.75;;;-0.40;99.90;;;;;;4980126;28;20153;-85
2024/02/28 04:06:48;;;;;;;164.52;48.17;;;-0.40;99.90;;;;;;4977232;28;21091;-85
2024/02/28 04:09:15;;;;;;;176.68;51.25;;;-0.30;99.90;;;;;;4965692;28;20494;-85
2024/02/28 04:11:42;;;;;;;164.88;50.50;;;-0.30;99.90;;;;;;4978090;28;20654;-85
2024/02/28 04:14:09;;;;;;;168.52;49.53;;;-0.30;99.90;;;;;;4976654;28;20093;-85
2024/02/28 04:16:43;;;;;;;184.88;50.03;;;-0.30;99.90;;;;;;4955210;28;20157;-86
2024/02/28 04:19:11;;;;;;;288.00;62.67;;;-0.40;99.90;;;;;;4947746;28;20054;-84
2024/02/28 04:21:38;;;;;;;322.77;64.60;;;-0.40;99.90;;;;;;4988129;28;20046;-85
2024/02/28 04:24:06;;;;;;;370.23;72.35;;;-0.30;99.90;;;;;;4979172;28;20121;-85
2024/02/28 04:26:33;;;;;;;233.40;62.42;;;-0.20;99.90;;;;;;4983991;28;20042;-86
2024/02/28 04:29:03;;;;;;;288.33;66.97;;;-0.10;99.90;;;;;;4962113;28;20084;-84
2024/02/28 04:31:31;;;;;;;234.40;60.83;;;-0.10;99.90;;;;;;4974244;28;20051;-85
2024/02/28 04:33:58;;;;;;;274.25;65.55;;;-0.10;99.90;;;;;;4981769;28;20116;-85
2024/02/28 04:36:25;;;;;;;240.00;63.13;;;-0.10;99.90;;;;;;4976326;28;20057;-84
2024/02/28 04:38:52;;;;;;;315.10;68.07;;;0.00;99.90;;;;;;4977237;28;20112;-84
2024/02/28 04:41:19;;;;;;;424.50;78.85;;;0.00;99.90;;;;;;4964542;28;20031;-85
2024/02/28 04:43:46;;;;;;;402.35;73.82;;;0.00;99.90;;;;;;4943588;28;20047;-85
2024/02/28 04:46:13;;;;;;;573.75;89.38;;;0.10;99.90;;;;;;4971022;28;20049;-85
2024/02/28 04:48:40;;;;;;;595.65;94.65;;;0.10;99.90;;;;;;4975911;28;20050;-85
2024/02/28 04:51:07;;;;;;;449.25;81.38;;;0.20;99.90;;;;;;4976803;28;20097;-85
2024/02/28 04:53:33;;;;;;;613.95;97.03;;;0.20;99.90;;;;;;4979537;28;20049;-85
2024/02/28 04:56:02;;;;;;;593.92;92.25;;;0.20;99.90;;;;;;4985062;28;20511;-85
2024/02/28 04:58:28;;;;;;;478.52;89.72;;;0.20;99.90;;;;;;4980902;28;20366;-86
2024/02/28 05:00:55;;;;;;;607.90;95.40;;;0.30;99.90;;;;;;4966516;28;20042;-85
2024/02/28 05:03:24;;;;;;;577.17;96.85;;;0.30;99.90;;;;;;4993863;28;20064;-85
2024/02/28 05:05:51;;;;;;;675.38;106.75;;;0.40;99.90;;;;;;4960852;28;20038;-84
2024/02/28 05:08:21;;;;;;;968.45;136.93;;;0.40;99.90;;;;;;4962320;28;20109;-85
2024/02/28 05:10:50;;;;;;;875.05;125.97;;;0.50;99.90;;;;;;4964719;28;20057;-85
2024/02/28 05:13:17;;;;;;;748.25;121.32;;;0.50;99.90;;;;;;4975432;28;20074;-85
2024/02/28 05:15:44;;;;;;;597.70;99.38;;;0.50;99.90;;;;;;4958668;28;20307;-85
2024/02/28 05:18:11;;;;;;;644.40;100.90;;;0.50;99.90;;;;;;4961475;28;20058;-85
2024/02/28 05:20:37;;;;;;;557.83;96.53;;;0.50;99.90;;;;;;4965651;28;20112;-84
2024/02/28 05:23:04;;;;;;;843.08;127.47;;;0.50;99.90;;;;;;4977128;28;20299;-86
2024/02/28 05:25:31;;;;;;;677.72;101.03;;;0.30;99.90;;;;;;4964929;28;20046;-84
2024/02/28 05:27:58;;;;;;;676.08;112.88;;;0.30;99.90;;;;;;4958333;28;20406;-86
2024/02/28 05:30:25;;;;;;;889.17;134.40;;;0.30;99.90;;;;;;4965582;28;20133;-85
2024/02/28 05:32:53;;;;;;;772.67;119.80;;;0.40;99.90;;;;;;4977006;28;20057;-86
2024/02/28 05:35:20;;;;;;;1048.72;154.15;;;0.50;99.90;;;;;;4967125;28;20064;-85
2024/02/28 05:37:47;;;;;;;1021.97;139.65;;;0.60;99.90;;;;;;4963612;28;20060;-85
2024/02/28 05:40:14;;;;;;;1120.57;150.32;;;0.70;99.90;;;;;;4965140;28;20050;-86
2024/02/28 05:42:42;;;;;;;1069.00;149.45;;;0.90;99.90;;;;;;4957424;28;20047;-85
2024/02/28 05:45:10;;;;;;;1177.47;160.02;;;0.90;99.90;;;;;;4985026;28;20034;-85
2024/02/28 05:47:37;;;;;;;1020.50;148.73;;;1.00;99.90;;;;;;4962857;28;20057;-86
2024/02/28 05:50:05;;;;;;;935.33;133.40;;;1.20;99.90;;;;;;4962141;28;20038;-85
2024/02/28 05:52:32;;;;;;;933.28;135.55;;;1.00;99.90;;;;;;4964006;28;20252;-86
2024/02/28 05:54:59;;;;;;;977.30;143.60;;;1.10;99.90;;;;;;4962286;28;20053;-85
2024/02/28 05:57:26;;;;;;;1158.40;160.43;;;1.10;99.90;;;;;;4962818;28;20300;-86
2024/02/28 05:59:53;;;;;;;1178.15;164.10;;;1.10;99.90;;;;;;4958418;28;20050;-85
2024/02/28 06:02:20;;;;;;;1131.88;166.90;;;1.20;99.90;;;;;;4991248;28;20557;-85
2024/02/28 06:04:47;;;;;;;1003.53;146.00;;;1.20;99.90;;;;;;4985780;28;20093;-86
2024/02/28 06:07:14;;;;;;;1179.20;161.18;;;1.20;99.90;;;;;;4960958;28;20047;-85
2024/02/28 06:09:40;;;;;;;968.88;144.05;;;1.40;99.90;;;;;;4963136;28;20053;-85
2024/02/28 06:12:07;;;;;;;1016.10;143.23;;;1.40;99.90;;;;;;4960463;28;20153;-87
2024/02/28 06:14:34;;;;;;;1028.00;147.50;;;1.20;99.90;;;;;;4978972;28;20043;-85
2024/02/28 06:17:01;;;;;;;939.53;145.20;;;1.10;99.90;;;;;;4972229;28;20085;-86
2024/02/28 06:19:28;;;;;;;972.63;138.00;;;1.10;99.90;;;;;;4973352;28;20176;-85
2024/02/28 06:21:55;;;;;;;1102.82;154.95;;;1.10;99.90;;;;;;4965562;28;20511;-86
2024/02/28 06:24:22;;;;;;;1067.07;164.98;;;1.30;99.90;;;;;;4972761;28;20038;-85
2024/02/28 06:26:49;;;;;;;1086.10;158.02;;;1.30;99.90;;;;;;4961347;28;20836;-85
2024/02/28 06:29:16;;;;;;;1045.13;154.48;;;1.40;99.90;;;;;;4943464;28;20094;-86
2024/02/28 06:31:43;;;;;;;859.63;135.00;;;1.40;99.90;;;;;;4955175;28;20050;-86
2024/02/28 06:34:10;;;;;;;810.80;128.75;;;1.50;99.90;;;;;;4956106;28;20050;-86
2024/02/28 06:36:40;;;;;;;1011.55;155.02;;;1.40;99.90;;;;;;4972327;28;20046;-87
2024/02/28 06:39:07;;;;;;;1161.72;165.30;;;1.40;99.90;;;;;;4966741;28;20257;-86
2024/02/28 06:41:34;;;;;;;1069.40;166.73;;;1.40;99.90;;;;;;4949727;28;20075;-86
2024/02/28 06:44:01;;;;;;;887.95;150.38;;;1.50;99.90;;;;;;4955087;28;20091;-85
2024/02/28 06:46:28;;;;;;;981.45;154.15;;;1.50;99.90;;;;;;4950772;28;20106;-85
2024/02/28 06:48:55;;;;;;;946.58;150.70;;;1.50;99.90;;;;;;4975788;28;20053;-85
2024/02/28 06:51:22;;;;;;;1095.57;166.80;;;1.60;99.90;;;;;;4958842;28;20077;-85
2024/02/28 06:53:49;;;;;;;933.47;150.15;;;1.60;99.90;;;;;;4974465;28;20085;-86
2024/02/28 06:56:15;;;;;;;836.30;139.73;;;1.60;99.90;;;;;;4960539;28;20161;-85
2024/02/28 06:58:42;;;;;;;997.97;162.13;;;1.60;99.90;;;;;;4972282;28;20057;-85
2024/02/28 07:01:09;;;;;;;1057.45;167.55;;;1.60;99.90;;;;;;4956542;28;20057;-85
2024/02/28 07:03:37;;;;;;;990.50;171.15;;;1.60;99.90;;;;;;4963642;28;20043;-85
2024/02/28 07:06:05;;;;;;;1167.63;179.35;;;1.70;99.90;;;;;;4983344;28;20045;-84
2024/02/28 07:08:32;;;;;;;989.35;163.95;;;1.70;99.90;;;;;;4978584;28;20054;-85
2024/02/28 07:10:59;;;;;;;1038.10;173.77;;;1.70;99.90;;;;;;4975991;28;20291;-85
2024/02/28 07:13:27;;;;;;;947.17;167.68;;;1.80;99.90;;;;;;4963489;28;20043;-85
2024/02/28 07:15:54;;;;;;;1116.90;191.90;;;1.80;99.90;;;;;;4959145;28;20054;-84
2024/02/28 07:18:22;;;;;;;918.65;159.43;;;1.80;99.90;;;;;;4983204;28;20054;-84
2024/02/28 07:20:49;;;;;;;746.20;139.02;;;1.90;99.90;;;;;;4968218;28;20063;-84
2024/02/28 07:23:16;;;;;;;670.83;131.38;;;1.90;99.90;;;;;;4948188;28;20047;-82
2024/02/28 07:25:43;;;;;;;759.95;140.50;;;1.80;99.90;;;;;;4968318;28;20063;-82
2024/02/28 07:28:10;;;;;;;564.95;119.53;;;1.90;99.90;;;;;;4963027;28;20050;-82
2024/02/28 07:30:39;;;;;;;569.92;122.13;;;1.80;99.90;;;;;;4981417;28;20137;-82
2024/02/28 07:33:06;;;;;;;554.92;115.53;;;1.90;99.90;;;;;;4973152;28;20070;-83
2024/02/28 07:35:44;;;;;;;524.70;113.82;;;1.90;99.90;;;;;;4959204;28;20054;-83
2024/02/28 07:38:11;;;;;;;521.42;113.50;;;1.90;99.90;;;;;;4962441;28;20149;-82
2024/02/28 07:40:38;;;;;;;617.85;122.68;;;2.00;99.90;;;;;;4988267;28;20046;-81
2024/02/28 07:43:05;;;;;;;669.33;127.05;;;2.00;99.90;;;;;;4967421;28;20038;-81
2024/02/28 07:45:32;;;;;;;673.58;129.63;;;1.90;99.90;;;;;;4955162;28;20045;-83
2024/02/28 07:47:59;;;;;;;578.17;113.32;;;1.90;99.90;;;;;;4972166;28;20057;-81
2024/02/28 07:50:26;;;;;;;677.35;125.60;;;1.80;99.90;;;;;;4983861;28;20045;-84
2024/02/28 07:52:56;;;;;;;760.90;128.13;;;1.90;99.90;;;;;;4971006;28;20058;-81
2024/02/28 07:55:23;;;;;;;629.78;119.93;;;2.00;99.90;;;;;;4971552;28;20051;-83
2024/02/28 07:57:53;;;;;;;885.50;148.90;;;1.90;99.90;;;;;;4974850;28;20058;-84
2024/02/28 08:00:21;;;;;;;634.00;116.28;;;1.90;99.90;;;;;;4971072;28;20061;-82
2024/02/28 08:02:47;;;;;;;793.85;139.43;;;1.90;99.90;;;;;;4968534;28;20498;-82
2024/02/28 08:05:15;;;;;;;772.30;132.07;;;2.00;99.90;;;;;;4972918;28;20137;-80
2024/02/28 08:07:42;;;;;;;851.50;144.73;;;2.10;99.90;;;;;;4973169;28;20047;-83
2024/02/28 08:10:10;;;;;;;868.65;144.95;;;2.20;99.90;;;;;;4956587;28;20050;-82
2024/02/28 08:12:37;;;;;;;1076.30;168.13;;;2.30;99.90;;;;;;4969417;28;20116;-81
2024/02/28 08:15:05;;;;;;;1079.13;165.57;;;2.30;99.90;;;;;;4973944;28;20047;-84
2024/02/28 08:17:32;;;;;;;1105.68;162.52;;;2.30;99.90;;;;;;4970332;28;20051;-81
2024/02/28 08:19:59;;;;;;;916.50;144.48;;;2.20;99.90;;;;;;4985538;28;20141;-82
2024/02/28 08:22:28;;;;;;;902.25;148.05;;;2.30;99.90;;;;;;4970329;28;20651;-81
2024/02/28 08:24:54;;;;;;;1170.28;176.15;;;2.30;99.90;;;;;;4958357;28;20046;-83
2024/02/28 08:27:23;;;;;;;918.38;146.23;;;2.30;99.90;;;;;;4972210;28;20030;-84
2024/02/28 08:29:50;;;;;;;1091.10;180.05;;;2.30;99.90;;;;;;4972415;28;20129;-82
2024/02/28 08:32:18;;;;;;;884.80;151.18;;;2.40;99.90;;;;;;4958441;28;20057;-82
2024/02/28 08:34:46;;;;;;;871.92;149.20;;;2.40;99.90;;;;;;4969183;28;20061;-84
2024/02/28 08:37:17;;;;;;;786.75;136.75;;;2.50;99.90;;;;;;4953187;28;20065;-84
2024/02/28 08:39:43;;;;;;;606.88;119.00;;;2.60;99.90;;;;;;4961539;28;20146;-81
2024/02/28 08:42:10;;;;;;;526.28;110.93;;;2.60;99.90;;;;;;4968466;28;20477;-81
2024/02/28 08:44:37;;;;;;;568.00;119.28;;;2.60;99.90;;;;;;4976102;28;20120;-80
2024/02/28 08:47:05;;;;;;;562.70;115.95;;;2.50;99.90;;;;;;4982243;28;20078;-83
2024/02/28 08:49:32;;;;;;;583.72;126.63;;;2.50;99.90;;;;;;4971730;28;20042;-84
2024/02/28 08:51:59;;;;;;;573.08;125.32;;;2.50;99.90;;;;;;4984413;28;20910;-84
2024/02/28 08:54:26;;;;;;;611.20;122.65;;;2.60;99.90;;;;;;4957336;28;20046;-82
2024/02/28 08:56:53;;;;;;;598.10;125.07;;;2.60;99.90;;;;;;4974441;28;20614;-83
2024/02/28 08:59:29;;;;;;;454.40;109.82;;;2.50;99.90;;;;;;4961348;28;20827;-78
2024/02/28 09:01:55;;;;;;;526.83;113.65;;;2.60;99.90;;;;;;4967768;28;20576;-78
2024/02/28 09:04:22;;;;;;;460.95;111.38;;;2.80;99.90;;;;;;4970412;28;20522;-78
2024/02/28 09:06:49;;;;;;;530.63;119.95;;;2.90;99.90;;;;;;4967951;28;20050;-78
2024/02/28 09:09:16;;;;;;;589.78;125.88;;;3.00;99.90;;;;;;4967191;28;20050;-80
2024/02/28 09:11:43;;;;;;;586.00;125.35;;;3.10;99.90;;;;;;4981604;28;20053;-81
2024/02/28 09:14:10;;;;;;;477.40;107.00;;;3.10;99.90;;;;;;4967306;28;20053;-80
2024/02/28 09:16:37;;;;;;;491.77;113.88;;;3.10;99.90;;;;;;4960600;28;20058;-80
2024/02/28 09:19:04;;;;;;;470.75;112.15;;;3.00;99.90;;;;;;4957808;28;20123;-78
2024/02/28 09:21:31;;;;;;;432.98;108.07;;;3.00;99.90;;;;;;4955268;28;20075;-79
2024/02/28 09:23:58;;;;;;;474.08;113.93;;;3.10;99.90;;;;;;4956639;28;20050;-80
2024/02/28 09:26:25;;;;;;;414.67;103.63;;;3.10;99.90;;;;;;4960706;28;20121;-80
2024/02/28 09:28:52;;;;;;;490.65;114.07;;;3.10;99.90;;;;;;4958720;28;20046;-81
2024/02/28 09:31:19;;;;;;;377.17;100.65;;;3.20;99.90;;;;;;4942545;28;20050;-81
2024/02/28 09:33:46;;;;;;;463.23;112.28;;;3.20;99.90;;;;;;4969137;28;20058;-80
2024/02/28 09:36:13;;;;;;;405.52;104.20;;;3.40;99.90;;;;;;4940775;28;20043;-80
2024/02/28 09:38:42;;;;;;;438.75;107.00;;;3.40;99.90;;;;;;4957115;28;20062;-80
2024/02/28 09:41:14;;;;;;;417.95;106.82;;;3.50;99.90;;;;;;4953442;28;20063;-80
2024/02/28 09:43:42;;;;;;;387.45;100.68;;;3.30;99.90;;;;;;4956451;28;20064;-81
2024/02/28 09:46:11;;;;;;;375.00;97.22;;;3.30;99.90;;;;;;4972664;28;20046;-80
2024/02/28 09:48:40;;;;;;;336.92;95.70;;;3.50;99.90;;;;;;4944705;28;20077;-81
2024/02/28 09:51:09;;;;;;;325.02;93.95;;;3.60;99.90;;;;;;4963290;28;20042;-79
2024/02/28 09:53:37;;;;;;;296.15;89.00;;;3.80;99.90;;;;;;4974920;28;20487;-81
2024/02/28 09:56:06;;;;;;;306.10;89.38;;;3.80;99.90;;;;;;4957154;28;20047;-80
2024/02/28 09:58:34;;;;;;;275.58;84.22;;;3.80;99.90;;;;;;4953427;28;20075;-81
2024/02/28 10:01:05;;;;;;;269.67;80.75;;;3.80;99.90;;;;;;4949868;28;20057;-81
2024/02/28 10:03:32;;;;;;;255.55;76.55;;;3.90;99.90;;;;;;4936076;28;20050;-80
2024/02/28 10:05:59;;;;;;;236.65;78.68;;;4.00;99.90;;;;;;4947857;28;20043;-80
2024/02/28 10:08:31;;;;;;;246.75;78.78;;;4.10;99.90;;;;;;4969805;28;20074;-80
2024/02/28 10:10:58;;;;;;;227.02;77.22;;;4.20;99.90;;;;;;4952368;28;20506;-78
2024/02/28 10:13:27;;;;;;;205.77;73.18;;;4.40;99.90;;;;;;4946260;28;20043;-80
2024/02/28 10:15:54;;;;;;;215.02;78.63;;;4.30;99.90;;;;;;4931233;28;20047;-79
2024/02/28 10:18:21;;;;;;;206.05;71.70;;;4.40;99.90;;;;;;4949646;28;20161;-81
2024/02/28 10:20:48;;;;;;;190.82;71.30;;;4.40;99.90;;;;;;4952351;28;20490;-79
2024/02/28 10:23:16;;;;;;;193.05;75.18;;;4.60;99.90;;;;;;4960872;28;20102;-78
2024/02/28 10:25:45;;;;;;;197.90;73.13;;;4.60;99.90;;;;;;4966292;28;20037;-79
2024/02/28 10:28:23;;;;;;;186.32;71.90;;;4.70;99.90;;;;;;4958685;28;20042;-80
2024/02/28 10:30:50;;;;;;;174.65;72.93;;;4.60;99.90;;;;;;4939661;28;20046;-80
2024/02/28 10:33:18;;;;;;;180.27;69.32;;;4.90;99.90;;;;;;4941633;28;20055;-79
2024/02/28 10:35:45;;;;;;;184.43;70.32;;;5.00;99.90;;;;;;4952187;28;20078;-80
2024/02/28 10:38:13;;;;;;;201.05;83.88;;;4.90;99.90;;;;;;4970913;28;20062;-80
2024/02/28 10:40:41;;;;;;;176.13;77.78;;;5.10;99.90;;;;;;4949894;28;20106;-81
2024/02/28 10:43:09;;;;;;;170.00;78.97;;;5.40;99.90;;;;;;4949622;28;20046;-78
2024/02/28 10:45:40;;;;;;;138.05;68.85;;;5.50;99.90;;;;;;4945481;28;20043;-79
2024/02/28 10:48:27;;;;;;;136.30;70.65;;;5.80;99.90;;;;;;4954782;28;20494;-80
2024/02/28 10:50:55;;;;;;;137.90;73.28;;;6.00;99.90;;;;;;4941440;28;20129;-81
2024/02/28 10:53:42;;;;;;;130.30;68.38;;;6.10;99.90;;;;;;4935260;28;20109;-80
2024/02/28 10:56:18;;;;;;;119.65;62.80;;;6.40;99.90;;;;;;4932242;28;20655;-78
2024/02/28 10:58:53;;;;;;;114.22;59.63;;;6.30;99.90;;;;;;4955431;28;20139;-79
2024/02/28 11:01:21;;;;;;;;;;;6.10;99.90;;;;;;4972929;28;20058;-80
2024/02/28 11:03:52;;;;;;;120.82;62.03;;;6.00;99.90;;;;;;4950921;28;19930;-82
2024/02/28 11:06:21;;;;;;;110.18;61.50;;;5.90;99.90;;;;;;4961764;28;20058;-82
2024/02/28 11:08:53;;;;;;;119.97;64.55;;;5.80;99.90;;;;;;4957676;28;20065;-81
2024/02/28 11:11:21;;;;;;;112.93;62.97;;;5.80;99.90;;;;;;4960167;28;20125;-81
2024/02/28 11:13:56;;;;;;;121.53;66.05;;;6.00;99.90;;;;;;4940418;28;20058;-82
2024/02/28 11:16:31;;;;;;;123.53;66.05;;;6.20;99.90;;;;;;4954923;28;20438;-83
2024/02/28 11:19:00;;;;;;;112.75;63.63;;;6.00;99.90;;;;;;4943493;28;20071;-81
2024/02/28 11:21:29;;;;;;;117.43;63.60;;;6.10;99.90;;;;;;4951643;28;20139;-80
2024/02/28 11:24:01;;;;;;;111.85;63.60;;;6.10;99.90;;;;;;4958872;28;20488;-81
2024/02/28 11:26:28;;;;;;;119.93;65.88;;;6.10;99.90;;;;;;4948765;28;20043;-81
2024/02/28 11:28:55;;;;;;;116.28;63.65;;;6.10;99.90;;;;;;4952422;28;20059;-82
2024/02/28 11:31:23;;;;;;;110.97;63.78;;;6.10;99.90;;;;;;4954626;28;20043;-81
2024/02/28 11:33:50;;;;;;;112.03;62.72;;;6.20;99.90;;;;;;4960649;28;20478;-80
2024/02/28 11:36:17;;;;;;;107.10;63.92;;;6.20;99.90;;;;;;4948365;28;20073;-81
2024/02/28 11:38:44;;;;;;;117.45;64.97;;;6.20;99.90;;;;;;4951787;28;20046;-82
2024/02/28 11:41:11;;;;;;;113.40;62.90;;;6.30;99.90;;;;;;4951678;28;20062;-81
2024/02/28 11:43:38;;;;;;;105.28;64.93;;;6.40;99.90;;;;;;4960799;28;20065;-81
2024/02/28 11:46:18;;;;;;;110.88;64.60;;;6.50;99.90;;;;;;4970511;28;20050;-81
2024/02/28 11:48:45;;;;;;;109.75;66.47;;;6.80;99.90;;;;;;4974701;28;20502;-80
2024/02/28 11:51:12;;;;;;;115.88;68.50;;;6.80;99.90;;;;;;4961791;28;20064;-81
2024/02/28 11:53:39;;;;;;;119.10;67.43;;;6.70;99.90;;;;;;4971371;28;20109;-81
2024/02/28 11:56:08;;;;;;;103.60;65.47;;;6.90;99.90;;;;;;4973813;28;20054;-81
2024/02/28 11:58:34;;;;;;;106.65;65.05;;;7.20;99.90;;;;;;4966299;28;20077;-81
2024/02/28 12:01:01;;;;;;;101.18;64.40;;;7.20;99.90;;;;;;4967550;28;20158;-80
2024/02/28 12:03:28;;;;;;;102.90;64.68;;;7.30;99.90;;;;;;4966860;28;20050;-80
2024/02/28 12:05:55;;;;;;;96.55;63.47;;;7.50;99.90;;;;;;4982375;28;20049;-82
2024/02/28 12:08:22;;;;;;;100.75;63.92;;;7.70;99.90;;;;;;4965304;28;20074;-80
2024/02/28 12:10:52;;;;;;;100.55;65.30;;;7.90;99.90;;;;;;4968257;28;20051;-81
2024/02/28 12:13:20;;;;;;;99.93;64.70;;;8.00;99.90;;;;;;4971332;28;20064;-81
2024/02/28 12:15:48;;;;;;;101.80;67.85;;;8.00;99.90;;;;;;4967351;28;20450;-79
2024/02/28 12:18:16;;;;;;;104.20;65.88;;;8.10;99.90;;;;;;4969926;28;20996;-81
2024/02/28 12:20:42;;;;;;;97.85;65.45;;;8.40;99.90;;;;;;4953368;28;20081;-81
2024/02/28 12:23:09;;;;;;;100.57;65.57;;;8.30;99.90;;;;;;4956527;28;20038;-81